Time;durP1;ratioP1;P1;durP2;ratioP2;P2;SDS_P1;SDS_P2;PMS_P1;PMS_P2;Temp;Humidity;BMP_temperature;BMP_pressure;BME280_temperature;BME280_humidity;BME280_pressure;Samples;Min_cycle;Max_cycle;Signal;HPM_P1;HPM_P2
2023/09/24 00:00:10;;;;;;;4.47;1.77;;;;;;;15.83;77.45;98101.34;4409986;32;20437;-79
2023/09/24 00:02:38;;;;;;;3.42;1.70;;;;;;;15.77;77.99;98104.34;4410270;32;20139;-79
2023/09/24 00:05:07;;;;;;;6.15;1.98;;;;;;;15.61;79.39;98103.63;4410083;32;20216;-79
2023/09/24 00:07:34;;;;;;;5.18;1.95;;;;;;;15.85;76.42;98104.72;4410110;32;20106;-79
2023/09/24 00:10:03;;;;;;;3.87;1.80;;;;;;;15.56;78.07;98103.06;4410298;32;20173;-79
2023/09/24 00:12:31;;;;;;;4.95;2.00;;;;;;;15.54;77.33;98099.72;4410002;32;20074;-79
2023/09/24 00:14:58;;;;;;;4.25;1.65;;;;;;;15.42;78.33;98077.06;4410137;32;20176;-79
2023/09/24 00:17:25;;;;;;;4.47;2.20;;;;;;;15.19;78.85;98086.25;4410358;32;20136;-79
2023/09/24 00:19:53;;;;;;;3.67;1.70;;;;;;;15.43;78.32;98105.59;4409912;32;20426;-79
2023/09/24 00:22:20;;;;;;;3.03;1.70;;;;;;;15.74;76.98;98098.50;4409946;32;20074;-79
2023/09/24 00:24:47;;;;;;;3.50;1.75;;;;;;;16.11;75.11;98084.81;4396368;32;20482;-79
2023/09/24 00:27:14;;;;;;;4.30;2.17;;;;;;;15.89;75.53;98090.56;4409986;32;20464;-79
2023/09/24 00:29:41;;;;;;;4.43;2.10;;;;;;;15.32;78.31;98093.25;4410204;32;20104;-79
2023/09/24 00:32:09;;;;;;;3.75;1.90;;;;;;;15.50;78.14;98098.22;4409725;32;20086;-79
2023/09/24 00:34:36;;;;;;;6.35;2.05;;;;;;;15.51;77.91;98099.88;4409739;32;20094;-79
2023/09/24 00:37:03;;;;;;;3.12;1.95;;;;;;;15.50;78.47;98098.22;4410159;32;20110;-79
2023/09/24 00:39:30;;;;;;;4.85;1.80;;;;;;;15.22;78.67;98102.53;4410206;32;20137;-79
2023/09/24 00:41:57;;;;;;;3.35;1.80;;;;;;;15.23;79.46;98095.56;4396005;32;20086;-79
2023/09/24 00:44:24;;;;;;;3.85;1.80;;;;;;;15.45;78.51;98108.09;4410099;32;20097;-79
2023/09/24 00:46:52;;;;;;;4.57;2.12;;;;;;;15.20;79.48;98096.56;4410031;32;20103;-79
2023/09/24 00:49:19;;;;;;;4.00;2.25;;;;;;;14.94;80.91;98094.72;4396069;32;20094;-79
2023/09/24 00:51:48;;;;;;;4.03;2.20;;;;;;;15.12;80.08;98098.81;4396407;32;20135;-79
2023/09/24 00:54:15;;;;;;;5.82;2.10;;;;;;;15.49;78.13;98092.19;4409974;32;20156;-79
2023/09/24 00:56:42;;;;;;;6.57;2.10;;;;;;;15.32;78.54;98100.22;4409698;32;20433;-79
2023/09/24 00:59:09;;;;;;;3.55;1.90;;;;;;;15.30;79.36;98086.44;4410056;32;20086;-79
2023/09/24 01:01:36;;;;;;;6.55;2.37;;;;;;;15.24;79.23;98087.66;4395941;32;20090;-79
2023/09/24 01:04:07;;;;;;;4.70;2.33;;;;;;;15.02;80.62;98069.94;4409987;32;20091;-79
2023/09/24 01:06:35;;;;;;;4.07;2.20;;;;;;;15.11;80.06;98080.72;4409908;32;20201;-79
2023/09/24 01:09:08;;;;;;;5.80;2.12;;;;;;;15.16;79.99;98081.25;4409527;32;20437;-79
2023/09/24 01:11:38;;;;;;;4.97;2.25;;;;;;;14.85;82.30;98087.47;4409815;32;20151;-79
2023/09/24 01:14:05;;;;;;;4.22;2.10;;;;;;;15.08;80.62;98083.47;4409927;32;20101;-79
2023/09/24 01:16:32;;;;;;;5.45;2.20;;;;;;;14.98;81.52;98091.81;4409467;32;20086;-79
2023/09/24 01:18:59;;;;;;;4.70;2.03;;;;;;;15.07;80.74;98094.81;4409849;32;20086;-79
2023/09/24 01:21:27;;;;;;;4.68;2.10;;;;;;;15.40;79.16;98082.34;4409706;32;20527;-79
2023/09/24 01:23:58;;;;;;;5.97;2.40;;;;;;;15.26;79.42;98091.00;4395635;32;20148;-80
2023/09/24 01:26:27;;;;;;;5.18;2.28;;;;;;;14.98;81.24;98078.00;4409628;32;20094;-79
2023/09/24 01:28:54;;;;;;;5.60;2.60;;;;;;;14.98;81.47;98073.63;4409712;32;20090;-79
2023/09/24 01:31:21;;;;;;;4.85;2.37;;;;;;;15.42;79.28;98066.66;4409251;32;20081;-79
2023/09/24 01:33:48;;;;;;;4.10;2.12;;;;;;;15.70;77.64;98074.44;4409714;32;20440;-79
2023/09/24 01:36:19;;;;;;;5.70;2.40;;;;;;;15.74;76.67;98055.13;4396145;32;20113;-79
2023/09/24 01:38:47;;;;;;;6.68;2.50;;;;;;;15.09;80.47;98049.59;4409312;32;20090;-79
2023/09/24 01:41:15;;;;;;;5.65;2.55;;;;;;;15.13;80.80;98056.31;4409412;32;20108;-79
2023/09/24 01:43:45;;;;;;;8.02;2.70;;;;;;;15.42;79.21;98045.84;4408205;32;20445;-79
2023/09/24 01:46:15;;;;;;;6.03;2.70;;;;;;;15.11;80.17;98060.75;4409415;32;20396;-79
2023/09/24 01:48:43;;;;;;;6.03;2.62;;;;;;;15.11;80.73;98050.37;4409458;32;20145;-79
2023/09/24 01:51:11;;;;;;;6.78;2.67;;;;;;;15.26;80.55;98059.81;4409152;32;20104;-79
2023/09/24 01:53:39;;;;;;;5.93;2.60;;;;;;;15.30;79.93;98063.88;4409403;32;20085;-79
2023/09/24 01:56:07;;;;;;;6.37;2.70;;;;;;;15.63;77.43;98078.38;4409304;32;20409;-79
2023/09/24 01:58:38;;;;;;;5.47;2.65;;;;;;;15.49;78.34;98073.16;4408952;32;20136;-79
2023/09/24 02:01:07;;;;;;;6.55;2.72;;;;;;;15.57;78.21;98076.12;4409336;32;20502;-79
2023/09/24 02:03:35;;;;;;;5.70;2.67;;;;;;;15.09;80.32;98073.00;4409183;32;20734;-79
2023/09/24 02:06:04;;;;;;;7.47;2.90;;;;;;;15.18;80.33;98084.59;4408667;32;20103;-80
2023/09/24 02:08:31;;;;;;;6.57;2.92;;;;;;;15.05;81.31;98093.13;4395762;32;20144;-80
2023/09/24 02:10:59;;;;;;;8.45;2.78;;;;;;;15.40;78.95;98090.16;4409153;32;20144;-79
2023/09/24 02:13:26;;;;;;;7.12;2.70;;;;;;;15.45;79.02;98082.09;4408698;32;20401;-79
2023/09/24 02:15:53;;;;;;;7.05;2.65;;;;;;;15.72;78.43;98101.19;4408993;32;20381;-80
2023/09/24 02:18:21;;;;;;;9.05;3.03;;;;;;;15.52;77.52;98099.78;4409078;32;20086;-79
2023/09/24 02:20:51;;;;;;;6.55;2.60;;;;;;;15.31;79.64;98112.38;4408789;32;20103;-79
2023/09/24 02:23:20;;;;;;;5.78;2.60;;;;;;;15.29;79.24;98105.56;4408641;32;20523;-79
2023/09/24 02:25:48;;;;;;;5.85;2.95;;;;;;;15.21;80.42;98106.06;4408488;32;20117;-79
2023/09/24 02:28:17;;;;;;;5.10;2.70;;;;;;;14.91;81.83;98106.13;4409040;32;20463;-79
2023/09/24 02:30:46;;;;;;;6.37;2.80;;;;;;;14.99;81.05;98106.50;4408946;32;20081;-80
2023/09/24 02:33:13;;;;;;;5.78;2.42;;;;;;;15.28;79.96;98109.94;4408485;32;20129;-79
2023/09/24 02:35:40;;;;;;;4.72;2.65;;;;;;;14.87;82.82;98109.81;4408715;32;20430;-79
2023/09/24 02:38:08;;;;;;;7.53;2.65;;;;;;;14.42;86.15;98110.69;4408904;32;20606;-79
2023/09/24 02:40:36;;;;;;;4.55;2.40;;;;;;;14.76;86.30;98110.44;4408480;32;20078;-79
2023/09/24 02:43:06;;;;;;;5.37;2.35;;;;;;;14.70;85.42;98099.59;4408693;32;20091;-79
2023/09/24 02:45:33;;;;;;;5.18;2.35;;;;;;;14.31;89.03;98110.47;4408610;32;20160;-79
2023/09/24 02:48:04;;;;;;;6.30;2.65;;;;;;;14.09;90.70;98098.72;4408443;32;20358;-79
2023/09/24 02:50:32;;;;;;;6.03;2.65;;;;;;;14.57;89.53;98096.88;4408736;32;20168;-79
2023/09/24 02:53:00;;;;;;;6.65;3.03;;;;;;;14.03;93.25;98091.25;4408633;32;20097;-79
2023/09/24 02:55:28;;;;;;;5.85;2.80;;;;;;;13.90;96.20;98088.50;4409328;32;20098;-79
2023/09/24 02:57:55;;;;;;;8.57;3.25;;;;;;;13.84;94.96;98077.66;4410918;32;20428;-79
2023/09/24 03:00:33;;;;;;;15.38;2.35;;;;;;;14.00;95.84;98088.84;4410738;32;20132;-79
2023/09/24 03:03:02;;;;;;;6.47;2.83;;;;;;;13.72;97.86;98086.97;4410482;32;20501;-79
2023/09/24 03:05:29;;;;;;;4.65;2.37;;;;;;;13.65;98.76;98082.19;4410596;32;20094;-79
2023/09/24 03:07:59;;;;;;;8.38;3.33;;;;;;;13.53;100.00;98076.75;4410566;32;20428;-79
2023/09/24 03:10:28;;;;;;;6.07;3.10;;;;;;;13.45;100.00;98084.09;4397432;32;20093;-79
2023/09/24 03:12:57;;;;;;;7.90;3.30;;;;;;;13.69;100.00;98088.84;4410596;32;20117;-79
2023/09/24 03:15:24;;;;;;;6.50;3.00;;;;;;;13.46;100.00;98092.69;4410360;32;20132;-79
2023/09/24 03:17:52;;;;;;;7.72;3.05;;;;;;;13.17;100.00;98074.31;4410683;32;20085;-79
2023/09/24 03:20:19;;;;;;;6.93;3.30;;;;;;;13.20;100.00;98063.00;4410687;32;20086;-79
2023/09/24 03:22:54;;;;;;;6.95;3.05;;;;;;;13.56;100.00;98058.44;4410031;32;20112;-79
2023/09/24 03:25:25;;;;;;;7.68;3.17;;;;;;;13.22;100.00;98051.63;4410605;32;20103;-79
2023/09/24 03:27:55;;;;;;;6.85;2.95;;;;;;;13.36;100.00;98057.81;4410704;32;20100;-79
2023/09/24 03:30:23;;;;;;;5.25;2.67;;;;;;;13.12;100.00;98063.38;4410200;32;20086;-79
2023/09/24 03:32:51;;;;;;;7.93;3.33;;;;;;;13.23;100.00;98060.25;4410436;32;20516;-79
2023/09/24 03:35:21;;;;;;;6.30;3.03;;;;;;;13.11;100.00;98066.03;4410517;32;20343;-79
2023/09/24 03:37:48;;;;;;;5.78;2.85;;;;;;;13.01;100.00;98073.47;4410261;32;20173;-79
2023/09/24 03:40:17;;;;;;;7.22;3.10;;;;;;;13.05;100.00;98074.97;4410540;32;20085;-79
2023/09/24 03:42:44;;;;;;;6.53;2.75;;;;;;;13.05;100.00;98077.56;4410201;32;20484;-79
2023/09/24 03:45:14;;;;;;;5.97;2.85;;;;;;;13.03;100.00;98077.63;4410373;32;20416;-79
2023/09/24 03:47:41;;;;;;;6.20;3.03;;;;;;;12.83;100.00;98070.06;4410485;32;20104;-79
2023/09/24 03:50:13;;;;;;;7.55;3.42;;;;;;;12.79;100.00;98078.06;4396483;32;20140;-79
2023/09/24 03:52:41;;;;;;;5.10;2.30;;;;;;;12.78;100.00;98085.00;4410428;32;20437;-79
2023/09/24 03:55:08;;;;;;;7.12;3.20;;;;;;;13.22;100.00;98092.25;4410473;32;20524;-79
2023/09/24 03:57:37;;;;;;;7.03;2.75;;;;;;;13.12;100.00;98097.03;4410017;32;20086;-79
2023/09/24 04:00:11;;;;;;;5.80;2.67;;;;;;;12.89;100.00;98100.81;4410389;32;20124;-79
2023/09/24 04:02:43;;;;;;;6.45;2.50;;;;;;;12.96;100.00;98106.50;4410369;32;20472;-79
2023/09/24 04:05:14;;;;;;;6.20;2.70;;;;;;;13.04;100.00;98097.44;4409963;32;20106;-79
2023/09/24 04:07:41;;;;;;;5.00;2.50;;;;;;;13.20;100.00;98109.63;4409602;32;20742;-79
2023/09/24 04:10:08;;;;;;;5.82;2.72;;;;;;;13.09;100.00;98101.56;4410285;32;20161;-79
2023/09/24 04:12:35;;;;;;;6.60;2.62;;;;;;;12.91;100.00;98099.00;4409853;32;20497;-79
2023/09/24 04:15:03;;;;;;;7.10;2.45;;;;;;;12.94;100.00;98095.41;4410207;32;20490;-79
2023/09/24 04:17:31;;;;;;;6.22;2.55;;;;;;;12.78;100.00;98104.88;4410293;32;20089;-79
2023/09/24 04:19:59;;;;;;;4.90;2.55;;;;;;;12.88;100.00;98106.94;4410005;32;20152;-79
2023/09/24 04:22:26;;;;;;;5.50;2.28;;;;;;;13.08;100.00;98112.81;4409913;32;20442;-79
2023/09/24 04:24:54;;;;;;;5.55;2.60;;;;;;;12.99;100.00;98116.75;4409938;32;20102;-79
2023/09/24 04:27:22;;;;;;;5.10;2.22;;;;;;;12.97;100.00;98119.41;4410258;32;20101;-79
2023/09/24 04:29:49;;;;;;;5.43;2.20;;;;;;;13.22;100.00;98120.75;4410182;32;20108;-79
2023/09/24 04:32:16;;;;;;;5.12;2.00;;;;;;;13.20;100.00;98120.84;4409868;32;20129;-79
2023/09/24 04:34:46;;;;;;;4.53;2.10;;;;;;;12.89;100.00;98123.31;4410171;32;20093;-79
2023/09/24 04:37:17;;;;;;;4.70;1.87;;;;;;;12.98;100.00;98113.31;4410198;32;20089;-79
2023/09/24 04:39:46;;;;;;;6.25;1.90;;;;;;;12.90;100.00;98122.38;4409845;32;20101;-79
2023/09/24 04:42:14;;;;;;;3.35;1.90;;;;;;;13.08;100.00;98128.34;4410048;32;20463;-79
2023/09/24 04:44:42;;;;;;;3.92;1.73;;;;;;;12.99;100.00;98132.28;4410179;32;20221;-79
2023/09/24 04:47:09;;;;;;;4.12;2.10;;;;;;;13.14;100.00;98130.62;4409774;32;20085;-79
2023/09/24 04:49:36;;;;;;;4.60;2.90;;;;;;;12.91;100.00;98134.41;4410074;32;20089;-79
2023/09/24 04:52:03;;;;;;;3.53;1.80;;;;;;;12.97;100.00;98136.66;4410009;32;20127;-79
2023/09/24 04:54:30;;;;;;;4.07;1.77;;;;;;;13.09;100.00;98132.66;4409623;32;20177;-79
2023/09/24 04:56:57;;;;;;;3.30;1.77;;;;;;;12.79;100.00;98141.06;4410084;32;20082;-79
2023/09/24 04:59:24;;;;;;;3.42;1.70;;;;;;;13.08;100.00;98152.53;4409923;32;20089;-79
2023/09/24 05:01:51;;;;;;;2.80;1.70;;;;;;;12.82;100.00;98151.25;4409693;32;20109;-79
2023/09/24 05:04:20;;;;;;;4.22;2.10;;;;;;;12.98;100.00;98157.34;4409925;32;20142;-79
2023/09/24 05:06:48;;;;;;;5.80;1.90;;;;;;;13.10;100.00;98157.63;4409861;32;20468;-79
2023/09/24 05:09:15;;;;;;;2.78;1.80;;;;;;;13.07;100.00;98166.38;4409714;32;20085;-79
2023/09/24 05:11:42;;;;;;;3.20;1.83;;;;;;;13.29;100.00;98156.66;4409858;32;20102;-79
2023/09/24 05:14:09;;;;;;;4.20;1.95;;;;;;;13.07;100.00;98162.94;4409462;32;20146;-79
2023/09/24 05:16:36;;;;;;;3.03;1.80;;;;;;;13.04;100.00;98172.56;4396332;32;20110;-79
2023/09/24 05:19:05;;;;;;;2.83;1.62;;;;;;;12.96;100.00;98153.12;4409768;32;20153;-79
2023/09/24 05:21:32;;;;;;;3.05;1.75;;;;;;;13.14;100.00;98157.37;4409305;32;20097;-79
2023/09/24 05:23:59;;;;;;;3.65;1.73;;;;;;;13.09;100.00;98154.19;4409528;32;20132;-79
2023/09/24 05:26:26;;;;;;;3.25;1.80;;;;;;;12.85;100.00;98145.91;4396252;32;20147;-79
2023/09/24 05:28:53;;;;;;;4.07;1.75;;;;;;;13.24;100.00;98147.41;4409465;32;20445;-79
2023/09/24 05:31:21;;;;;;;4.87;2.00;;;;;;;13.06;100.00;98135.38;4409638;32;20118;-79
2023/09/24 05:33:48;;;;;;;5.43;1.92;;;;;;;12.93;100.00;98148.94;4409661;32;20102;-79
2023/09/24 05:36:16;;;;;;;4.82;2.00;;;;;;;12.92;100.00;98149.03;4409206;32;20421;-79
2023/09/24 05:38:43;;;;;;;3.47;1.90;;;;;;;13.03;100.00;98152.75;4409631;32;20116;-79
2023/09/24 05:41:10;;;;;;;5.07;2.20;;;;;;;13.01;100.00;98159.75;4409513;32;20148;-79
2023/09/24 05:43:44;;;;;;;5.50;2.17;;;;;;;13.01;100.00;98158.94;4409152;32;20142;-79
2023/09/24 05:46:11;;;;;;;4.62;2.00;;;;;;;12.74;100.00;98153.38;4409520;32;20121;-79
2023/09/24 05:48:38;;;;;;;3.75;2.00;;;;;;;12.85;100.00;98143.31;4409428;32;20098;-79
2023/09/24 05:51:07;;;;;;;3.60;2.03;;;;;;;12.98;100.00;98139.22;4409107;32;20094;-79
2023/09/24 05:53:34;;;;;;;4.45;1.90;;;;;;;13.09;100.00;98130.91;4409337;32;20445;-78
2023/09/24 05:56:02;;;;;;;4.18;2.15;;;;;;;12.83;100.00;98150.31;4409256;32;20089;-79
2023/09/24 05:58:29;;;;;;;3.67;2.10;;;;;;;13.19;100.00;98152.84;4395719;32;20153;-78
2023/09/24 06:00:56;;;;;;;4.85;2.12;;;;;;;13.08;100.00;98156.84;4409324;32;20121;-78
2023/09/24 06:03:23;;;;;;;4.87;2.00;;;;;;;13.19;100.00;98168.41;4395239;32;20106;-78
2023/09/24 06:05:50;;;;;;;5.25;2.00;;;;;;;12.98;100.00;98164.28;4409172;32;20100;-79
2023/09/24 06:08:17;;;;;;;3.72;1.60;;;;;;;13.13;100.00;98167.81;4409083;32;20180;-79
2023/09/24 06:10:45;;;;;;;3.37;1.80;;;;;;;13.37;100.00;98170.94;4408792;32;20436;-79
2023/09/24 06:13:16;;;;;;;4.12;1.75;;;;;;;13.22;100.00;98170.81;4409139;32;20113;-79
2023/09/24 06:15:43;;;;;;;3.05;1.75;;;;;;;13.12;100.00;98179.94;4409021;32;20112;-79
2023/09/24 06:18:12;;;;;;;2.78;1.60;;;;;;;13.10;100.00;98178.34;4408797;32;20078;-79
2023/09/24 06:20:40;;;;;;;2.42;1.58;;;;;;;13.22;100.00;98182.94;4409024;32;20112;-79
2023/09/24 06:23:09;;;;;;;4.30;1.90;;;;;;;13.04;100.00;98175.16;4408696;32;20109;-79
2023/09/24 06:25:36;;;;;;;3.22;1.87;;;;;;;12.97;100.00;98178.97;4408559;32;20140;-79
2023/09/24 06:28:09;;;;;;;3.53;1.58;;;;;;;12.94;100.00;98178.28;4408926;32;20145;-79
2023/09/24 06:30:38;;;;;;;2.78;1.70;;;;;;;13.13;100.00;98183.38;4410233;32;20154;-79
2023/09/24 06:33:05;;;;;;;2.92;1.70;;;;;;;12.85;100.00;98178.72;4410481;32;20180;-79
2023/09/24 06:35:37;;;;;;;4.65;1.67;;;;;;;12.94;100.00;98168.75;4410866;32;20089;-79
2023/09/24 06:38:04;;;;;;;3.10;1.85;;;;;;;12.98;100.00;98179.81;4411030;32;20101;-79
2023/09/24 06:40:31;;;;;;;2.42;1.52;;;;;;;12.94;100.00;98196.41;4410709;32;20158;-78
2023/09/24 06:42:58;;;;;;;4.10;1.60;;;;;;;12.89;100.00;98196.66;4410785;32;20102;-79
2023/09/24 06:45:25;;;;;;;3.00;1.80;;;;;;;12.99;100.00;98195.28;4410560;32;20086;-79
2023/09/24 06:47:52;;;;;;;4.80;1.90;;;;;;;12.79;100.00;98198.00;4410729;32;20158;-79
2023/09/24 06:50:19;;;;;;;5.43;1.90;;;;;;;12.82;100.00;98203.03;4410877;32;20170;-79
2023/09/24 06:52:46;;;;;;;3.25;1.60;;;;;;;13.18;100.00;98215.06;4410469;32;20157;-79
2023/09/24 06:55:15;;;;;;;3.37;1.70;;;;;;;13.18;100.00;98207.28;4410605;32;20098;-79
2023/09/24 06:57:42;;;;;;;3.40;1.80;;;;;;;12.97;100.00;98188.47;4410925;32;20133;-78
2023/09/24 07:00:10;;;;;;;3.75;1.87;;;;;;;13.02;100.00;98208.06;4410484;32;20120;-79
2023/09/24 07:02:37;;;;;;;3.25;1.60;;;;;;;12.97;100.00;98209.19;4410654;32;20102;-79
2023/09/24 07:05:05;;;;;;;3.10;1.70;;;;;;;12.95;100.00;98198.91;4410566;32;20169;-79
2023/09/24 07:07:32;;;;;;;2.25;1.42;;;;;;;12.94;100.00;98201.59;4410480;32;20089;-79
2023/09/24 07:09:59;;;;;;;2.67;1.50;;;;;;;12.78;100.00;98205.84;4410739;32;20369;-78
2023/09/24 07:12:26;;;;;;;2.92;1.67;;;;;;;12.83;100.00;98225.41;4410660;32;20112;-79
2023/09/24 07:14:53;;;;;;;2.30;1.30;;;;;;;13.04;100.00;98221.75;4410185;32;20094;-79
2023/09/24 07:17:20;;;;;;;2.35;1.40;;;;;;;13.18;100.00;98228.84;4410702;32;20617;-79
2023/09/24 07:19:47;;;;;;;3.03;1.40;;;;;;;13.07;100.00;98227.69;4410583;32;20114;-78
2023/09/24 07:22:15;;;;;;;2.67;1.20;;;;;;;12.86;100.00;98233.03;4410079;32;20508;-79
2023/09/24 07:24:42;;;;;;;1.65;1.20;;;;;;;12.67;100.00;98240.03;4410595;32;20082;-79
2023/09/24 07:27:10;;;;;;;2.30;1.30;;;;;;;12.96;100.00;98234.25;4410465;32;20089;-78
2023/09/24 07:29:39;;;;;;;1.77;1.20;;;;;;;12.76;100.00;98229.25;4396834;32;20113;-79
2023/09/24 07:32:06;;;;;;;1.17;0.90;;;;;;;12.77;100.00;98237.84;4410582;32;20094;-78
2023/09/24 07:34:33;;;;;;;1.85;1.00;;;;;;;12.70;100.00;98243.31;4410042;32;20130;-79
2023/09/24 07:37:00;;;;;;;1.25;0.93;;;;;;;12.71;100.00;98241.56;4410654;32;20146;-79
2023/09/24 07:39:40;;;;;;;2.08;1.10;;;;;;;12.67;100.00;98224.50;4410588;32;20460;-78
2023/09/24 07:42:07;;;;;;;2.12;1.20;;;;;;;12.44;100.00;98234.22;4395445;32;20188;-78
2023/09/24 07:44:34;;;;;;;2.42;1.00;;;;;;;12.41;100.00;98239.50;4410311;32;20110;-78
2023/09/24 07:47:02;;;;;;;1.83;0.90;;;;;;;12.61;100.00;98241.16;4410447;32;20078;-79
2023/09/24 07:49:29;;;;;;;2.67;1.10;;;;;;;12.45;100.00;98246.22;4410173;32;20472;-79
2023/09/24 07:51:56;;;;;;;3.15;1.10;;;;;;;12.51;100.00;98252.00;4410363;32;20102;-78
2023/09/24 07:54:23;;;;;;;1.65;1.10;;;;;;;12.22;100.00;98249.03;4410269;32;20104;-78
2023/09/24 07:56:50;;;;;;;2.08;1.12;;;;;;;12.26;100.00;98252.34;4410073;32;20417;-78
2023/09/24 07:59:17;;;;;;;1.00;0.90;;;;;;;12.25;100.00;98253.25;4410390;32;20089;-78
2023/09/24 08:01:44;;;;;;;2.50;1.20;;;;;;;12.35;100.00;98246.75;4410365;32;20106;-79
2023/09/24 08:04:12;;;;;;;1.10;0.80;;;;;;;12.44;100.00;98259.22;4409989;32;20169;-78
2023/09/24 08:06:39;;;;;;;1.60;1.10;;;;;;;12.38;100.00;98260.34;4410328;32;20082;-78
2023/09/24 08:09:06;;;;;;;1.12;0.90;;;;;;;12.28;100.00;98260.84;4410353;32;20127;-78
2023/09/24 08:11:52;;;;;;;0.77;0.73;;;;;;;12.45;100.00;98245.41;4410350;32;20094;-78
2023/09/24 08:14:20;;;;;;;1.73;0.93;;;;;;;12.19;100.00;98259.53;4410367;32;20090;-78
2023/09/24 08:16:47;;;;;;;1.67;0.90;;;;;;;12.17;100.00;98258.75;4396388;32;20104;-78
2023/09/24 08:19:14;;;;;;;1.65;1.00;;;;;;;12.19;100.00;98264.69;4410300;32;20102;-78
2023/09/24 08:21:40;;;;;;;1.42;0.82;;;;;;;12.26;100.00;98267.84;4410015;32;20121;-79
2023/09/24 08:24:08;;;;;;;1.45;0.95;;;;;;;12.37;100.00;98279.37;4409778;32;20376;-79
2023/09/24 08:26:36;;;;;;;2.92;1.00;;;;;;;12.24;100.00;98278.28;4410338;32;20107;-78
2023/09/24 08:29:06;;;;;;;1.40;0.90;;;;;;;12.18;100.00;98269.94;4410262;32;20093;-78
2023/09/24 08:31:34;;;;;;;0.82;0.80;;;;;;;12.04;100.00;98274.00;4409857;32;20158;-78
2023/09/24 08:34:03;;;;;;;1.27;0.90;;;;;;;12.09;100.00;98271.19;4410311;32;20082;-78
2023/09/24 08:36:31;;;;;;;1.42;0.90;;;;;;;12.03;100.00;98277.50;4410193;32;20077;-79
2023/09/24 08:38:58;;;;;;;2.70;1.00;;;;;;;12.31;100.00;98273.63;4409820;32;20492;-79
2023/09/24 08:41:29;;;;;;;1.23;0.88;;;;;;;12.44;100.00;98275.62;4410186;32;20150;-78
2023/09/24 08:43:56;;;;;;;1.75;1.10;;;;;;;12.67;100.00;98271.94;4410026;32;20165;-79
2023/09/24 08:46:24;;;;;;;2.78;1.00;;;;;;;12.48;100.00;98283.22;4409852;32;20137;-79
2023/09/24 08:48:52;;;;;;;2.40;1.10;;;;;;;12.26;100.00;98278.19;4396394;32;20120;-78
2023/09/24 08:51:20;;;;;;;0.60;0.55;;;;;;;12.42;100.00;98279.16;4410064;32;20094;-78
2023/09/24 08:53:47;;;;;;;1.02;0.88;;;;;;;12.07;100.00;98283.38;4383426;32;20085;-78
2023/09/24 08:56:15;;;;;;;1.75;0.90;;;;;;;12.34;100.00;98268.34;4410071;32;20141;-78
2023/09/24 08:58:43;;;;;;;0.75;0.70;;;;;;;12.20;100.00;98268.13;4409743;32;20097;-79
2023/09/24 09:01:10;;;;;;;0.60;0.60;;;;;;;12.47;100.00;98272.03;4410039;32;20090;-78
2023/09/24 09:03:39;;;;;;;1.25;0.90;;;;;;;12.61;100.00;98287.75;4409864;32;20127;-78
2023/09/24 09:06:06;;;;;;;0.85;0.80;;;;;;;12.53;100.00;98294.19;4409592;32;20116;-78
2023/09/24 09:08:52;;;;;;;2.47;0.90;;;;;;;12.71;100.00;98289.00;4409945;32;20133;-78
2023/09/24 09:11:20;;;;;;;1.27;0.57;;;;;;;13.01;100.00;98285.84;4409886;32;20487;-79
2023/09/24 09:13:48;;;;;;;1.17;0.70;;;;;;;12.74;100.00;98300.94;4409479;32;20589;-79
2023/09/24 09:16:16;;;;;;;0.75;0.52;;;;;;;12.72;100.00;98297.59;4409860;32;20105;-78
2023/09/24 09:18:58;;;;;;;1.65;1.05;;;;;;;12.70;100.00;98299.41;4409792;32;20156;-79
2023/09/24 09:21:25;;;;;;;1.08;0.60;;;;;;;12.72;100.00;98305.34;4395775;32;20120;-79
2023/09/24 09:23:52;;;;;;;1.15;0.52;;;;;;;12.90;100.00;98311.44;4409548;32;20085;-79
2023/09/24 09:26:33;;;;;;;1.65;0.70;;;;;;;12.76;100.00;98314.69;4409796;32;20361;-78
2023/09/24 09:29:02;;;;;;;0.52;0.52;;;;;;;12.97;100.00;98312.78;4409764;32;20102;-79
2023/09/24 09:31:29;;;;;;;0.70;0.70;;;;;;;13.12;100.00;98325.03;4395899;32;20129;-79
2023/09/24 09:33:56;;;;;;;0.75;0.68;;;;;;;12.88;100.00;98314.09;4409264;32;20117;-79
2023/09/24 09:36:25;;;;;;;1.50;0.75;;;;;;;13.05;100.00;98318.44;4409739;32;20141;-79
2023/09/24 09:38:52;;;;;;;1.20;0.65;;;;;;;12.79;100.00;98314.53;4409571;32;20170;-79
2023/09/24 09:41:21;;;;;;;0.60;0.60;;;;;;;13.21;100.00;98321.19;4409146;32;20142;-79
2023/09/24 09:43:50;;;;;;;0.40;0.40;;;;;;;13.37;100.00;98314.31;4409482;32;20165;-79
2023/09/24 09:46:22;;;;;;;1.05;0.50;;;;;;;12.92;100.00;98313.03;4409597;32;20490;-79
2023/09/24 09:49:05;;;;;;;0.55;0.40;;;;;;;12.92;100.00;98325.97;4409091;32;20444;-79
2023/09/24 09:51:45;;;;;;;0.50;0.50;;;;;;;13.08;100.00;98315.72;4409354;32;20463;-79
2023/09/24 09:54:14;;;;;;;0.43;0.43;;;;;;;12.96;100.00;98326.66;4409448;32;20098;-79
2023/09/24 09:56:42;;;;;;;0.90;0.40;;;;;;;13.22;100.00;98325.44;4409198;32;20555;-79
2023/09/24 09:59:10;;;;;;;1.12;0.60;;;;;;;13.28;100.00;98333.72;4409381;32;20113;-79
2023/09/24 10:01:37;;;;;;;0.52;0.50;;;;;;;13.10;100.00;98333.78;4409091;32;20500;-79
2023/09/24 10:04:05;;;;;;;1.00;0.55;;;;;;;13.52;100.00;98342.06;4395601;32;20429;-79
2023/09/24 10:06:35;;;;;;;0.50;0.50;;;;;;;13.74;100.00;98335.81;4411068;32;20144;-79
2023/09/24 10:09:02;;;;;;;0.50;0.50;;;;;;;13.29;100.00;98338.03;4410594;32;20121;-79
2023/09/24 10:11:32;;;;;;;0.68;0.50;;;;;;;13.11;100.00;98343.22;4411036;32;20106;-79
2023/09/24 10:14:00;;;;;;;0.50;0.50;;;;;;;13.29;100.00;98342.34;4410930;32;20140;-79
2023/09/24 10:16:27;;;;;;;0.80;0.50;;;;;;;13.23;100.00;98347.84;4410849;32;20094;-79
2023/09/24 10:18:59;;;;;;;2.00;0.77;;;;;;;13.23;100.00;98353.03;4411028;32;20159;-79
2023/09/24 10:21:38;;;;;;;0.40;0.40;;;;;;;13.36;100.00;98348.91;4411107;32;20166;-79
2023/09/24 10:24:14;;;;;;;0.45;0.45;;;;;;;13.21;100.00;98350.50;4410437;32;20112;-79
2023/09/24 10:27:02;;;;;;;0.35;0.35;;;;;;;13.63;100.00;98346.72;4411075;32;20139;-79
2023/09/24 10:29:45;;;;;;;0.62;0.62;;;;;;;13.53;100.00;98343.75;4411053;32;20113;-79
2023/09/24 10:32:21;;;;;;;1.37;0.50;;;;;;;13.45;100.00;98353.66;4410965;32;20155;-79
2023/09/24 10:34:51;;;;;;;0.47;0.47;;;;;;;13.30;100.00;98352.66;4410916;32;20132;-79
2023/09/24 10:37:23;;;;;;;0.70;0.52;;;;;;;13.14;100.00;98356.03;4410676;32;20082;-79
2023/09/24 10:39:59;;;;;;;0.70;0.55;;;;;;;13.22;100.00;98367.75;4410944;32;20157;-79
2023/09/24 10:42:28;;;;;;;0.60;0.60;;;;;;;13.60;100.00;98367.59;4410837;32;20441;-79
2023/09/24 10:45:07;;;;;;;0.60;0.60;;;;;;;13.19;100.00;98356.69;4396809;32;20501;-79
2023/09/24 10:47:44;;;;;;;0.43;0.43;;;;;;;13.37;100.00;98355.78;4410885;32;20069;-79
2023/09/24 10:50:16;;;;;;;0.43;0.40;;;;;;;13.26;100.00;98351.12;4397241;32;20152;-79
2023/09/24 10:52:50;;;;;;;0.50;0.50;;;;;;;13.61;100.00;98356.34;4410472;32;20161;-79
2023/09/24 10:55:36;;;;;;;0.40;0.40;;;;;;;13.29;100.00;98353.59;4397077;32;20094;-79
2023/09/24 10:58:04;;;;;;;0.40;0.40;;;;;;;13.56;100.00;98366.91;4410552;32;20073;-79
2023/09/24 11:00:33;;;;;;;0.60;0.47;;;;;;;13.59;100.00;98351.19;4410771;32;20441;-79
2023/09/24 11:03:07;;;;;;;0.70;0.40;;;;;;;13.52;100.00;98356.78;4396939;32;20098;-79
2023/09/24 11:05:40;;;;;;;0.70;0.50;;;;;;;13.31;100.00;98367.28;4410360;32;20098;-79
2023/09/24 11:08:09;;;;;;;0.50;0.50;;;;;;;13.49;100.00;98368.13;4410846;32;20082;-79
2023/09/24 11:10:36;;;;;;;0.28;0.28;;;;;;;13.41;100.00;98366.84;4410747;32;20157;-79
2023/09/24 11:13:04;;;;;;;0.52;0.50;;;;;;;13.41;100.00;98369.44;4396586;32;20090;-79
2023/09/24 11:15:38;;;;;;;0.50;0.40;;;;;;;13.47;100.00;98364.78;4396785;32;20090;-79
2023/09/24 11:18:06;;;;;;;0.45;0.40;;;;;;;13.34;100.00;98363.72;4410770;32;20104;-79
2023/09/24 11:20:35;;;;;;;0.65;0.62;;;;;;;13.49;100.00;98364.69;4396735;32;20161;-79
2023/09/24 11:23:11;;;;;;;1.67;0.50;;;;;;;13.53;100.00;98358.47;4410269;32;20093;-79
2023/09/24 11:25:38;;;;;;;0.30;0.30;;;;;;;13.53;100.00;98374.84;4410577;32;20087;-79
2023/09/24 11:28:06;;;;;;;0.45;0.45;;;;;;;13.68;100.00;98367.22;4396761;32;20112;-79
2023/09/24 11:30:41;;;;;;;0.47;0.47;;;;;;;13.71;100.00;98367.91;4396978;32;20101;-79
2023/09/24 11:33:16;;;;;;;0.40;0.40;;;;;;;13.54;100.00;98368.75;4410195;32;20395;-79